sensor_id;sensor_type;location;lat;lon;timestamp;pressure;altitude;pressure_sealevel;temperature;humidity
61109;BME280;46995;55.740;37.402;2023-03-23T00:01:58;99278.50;;;5.85;62.94
61109;BME280;46995;55.740;37.402;2023-03-23T00:04:24;99228.47;;;5.52;62.49
61109;BME280;46995;55.740;37.402;2023-03-23T00:06:51;99209.00;;;5.43;63.11
61109;BME280;46995;55.740;37.402;2023-03-23T00:09:17;99249.59;;;5.74;62.63
61109;BME280;46995;55.740;37.402;2023-03-23T00:11:50;99240.47;;;5.67;62.76
61109;BME280;46995;55.740;37.402;2023-03-23T00:14:17;99258.38;;;5.86;63.10
61109;BME280;46995;55.740;37.402;2023-03-23T00:16:48;99197.13;;;5.50;62.96
61109;BME280;46995;55.740;37.402;2023-03-23T00:19:15;99255.22;;;5.93;62.87
61109;BME280;46995;55.740;37.402;2023-03-23T00:21:42;99257.94;;;5.92;62.59
61109;BME280;46995;55.740;37.402;2023-03-23T00:24:14;99155.63;;;5.33;62.69
61109;BME280;46995;55.740;37.402;2023-03-23T00:26:43;99211.22;;;5.73;62.65
61109;BME280;46995;55.740;37.402;2023-03-23T00:31:42;99181.81;;;5.57;62.41
61109;BME280;46995;55.740;37.402;2023-03-23T00:34:17;99162.72;;;5.44;62.67
61109;BME280;46995;55.740;37.402;2023-03-23T00:36:46;99176.25;;;5.62;62.57
61109;BME280;46995;55.740;37.402;2023-03-23T00:39:12;99242.22;;;5.92;62.73
61109;BME280;46995;55.740;37.402;2023-03-23T00:41:45;99193.81;;;5.72;62.88
61109;BME280;46995;55.740;37.402;2023-03-23T00:44:13;99210.78;;;5.79;62.69
61109;BME280;46995;55.740;37.402;2023-03-23T00:46:49;99230.44;;;5.97;62.83
61109;BME280;46995;55.740;37.402;2023-03-23T00:49:17;99157.50;;;5.55;63.00
61109;BME280;46995;55.740;37.402;2023-03-23T00:51:44;99162.03;;;5.53;63.06
61109;BME280;46995;55.740;37.402;2023-03-23T00:54:11;99139.25;;;5.42;62.90
61109;BME280;46995;55.740;37.402;2023-03-23T00:56:37;99151.41;;;5.43;63.02
61109;BME280;46995;55.740;37.402;2023-03-23T00:59:05;99164.16;;;5.48;63.37
61109;BME280;46995;55.740;37.402;2023-03-23T01:01:31;99194.06;;;5.69;63.65
61109;BME280;46995;55.740;37.402;2023-03-23T01:03:59;99182.94;;;5.66;63.51
61109;BME280;46995;55.740;37.402;2023-03-23T01:06:36;99145.53;;;5.40;63.69
61109;BME280;46995;55.740;37.402;2023-03-23T01:09:12;99167.28;;;5.53;63.83
61109;BME280;46995;55.740;37.402;2023-03-23T01:11:44;99218.97;;;5.87;63.62
61109;BME280;46995;55.740;37.402;2023-03-23T01:14:11;99183.78;;;5.66;63.54
61109;BME280;46995;55.740;37.402;2023-03-23T01:16:38;99171.34;;;5.57;63.77
61109;BME280;46995;55.740;37.402;2023-03-23T01:19:04;99197.91;;;5.76;63.53
61109;BME280;46995;55.740;37.402;2023-03-23T01:21:30;99215.81;;;5.82;63.59
61109;BME280;46995;55.740;37.402;2023-03-23T01:23:56;99141.75;;;5.44;63.65
61109;BME280;46995;55.740;37.402;2023-03-23T01:26:25;99181.91;;;5.68;63.57
61109;BME280;46995;55.740;37.402;2023-03-23T01:28:52;99196.97;;;5.77;63.63
61109;BME280;46995;55.740;37.402;2023-03-23T01:31:21;99218.41;;;5.82;64.08
61109;BME280;46995;55.740;37.402;2023-03-23T01:33:48;99159.13;;;5.45;64.03
61109;BME280;46995;55.740;37.402;2023-03-23T01:36:21;99194.50;;;5.63;64.27
61109;BME280;46995;55.740;37.402;2023-03-23T01:38:49;99156.63;;;5.43;64.45
61109;BME280;46995;55.740;37.402;2023-03-23T01:41:17;99150.56;;;5.43;64.23
61109;BME280;46995;55.740;37.402;2023-03-23T01:44:07;99200.50;;;5.76;64.72
61109;BME280;46995;55.740;37.402;2023-03-23T01:46:39;99192.38;;;5.68;64.49
61109;BME280;46995;55.740;37.402;2023-03-23T01:49:17;99151.78;;;5.50;64.47
61109;BME280;46995;55.740;37.402;2023-03-23T01:51:50;99163.09;;;5.50;64.77
61109;BME280;46995;55.740;37.402;2023-03-23T01:54:18;99175.41;;;5.61;64.49
61109;BME280;46995;55.740;37.402;2023-03-23T01:56:54;99175.03;;;5.54;64.77
61109;BME280;46995;55.740;37.402;2023-03-23T01:59:23;99180.88;;;5.58;64.94
61109;BME280;46995;55.740;37.402;2023-03-23T02:02:11;99145.13;;;5.33;64.51
61109;BME280;46995;55.740;37.402;2023-03-23T02:04:37;99179.22;;;5.57;64.79
61109;BME280;46995;55.740;37.402;2023-03-23T02:07:03;99142.38;;;5.35;64.71
61109;BME280;46995;55.740;37.402;2023-03-23T02:09:30;99161.03;;;5.43;64.87
61109;BME280;46995;55.740;37.402;2023-03-23T02:11:56;99144.69;;;5.39;65.12
61109;BME280;46995;55.740;37.402;2023-03-23T02:14:27;99138.84;;;5.36;65.22
61109;BME280;46995;55.740;37.402;2023-03-23T02:17:24;99162.91;;;5.41;65.23
61109;BME280;46995;55.740;37.402;2023-03-23T02:23:02;99180.31;;;5.42;65.43
61109;BME280;46995;55.740;37.402;2023-03-23T02:34:09;99163.25;;;5.24;65.78
61109;BME280;46995;55.740;37.402;2023-03-23T02:37:00;99122.81;;;4.91;66.40
61109;BME280;46995;55.740;37.402;2023-03-23T02:39:34;99111.75;;;4.75;66.71
61109;BME280;46995;55.740;37.402;2023-03-23T02:42:09;99083.28;;;4.58;66.80
61109;BME280;46995;55.740;37.402;2023-03-23T02:44:39;99071.03;;;4.46;66.88
61109;BME280;46995;55.740;37.402;2023-03-23T02:47:14;99123.22;;;4.73;66.93
61109;BME280;46995;55.740;37.402;2023-03-23T02:49:42;99093.00;;;4.56;66.72
61109;BME280;46995;55.740;37.402;2023-03-23T02:52:17;99149.16;;;4.88;67.20
61109;BME280;46995;55.740;37.402;2023-03-23T02:54:48;99121.03;;;4.79;66.88
61109;BME280;46995;55.740;37.402;2023-03-23T02:57:15;99127.00;;;4.81;66.93
61109;BME280;46995;55.740;37.402;2023-03-23T02:59:45;99123.13;;;4.74;67.06
61109;BME280;46995;55.740;37.402;2023-03-23T03:02:26;99150.84;;;4.89;67.30
61109;BME280;46995;55.740;37.402;2023-03-23T03:08:00;99149.50;;;4.84;67.56
61109;BME280;46995;55.740;37.402;2023-03-23T03:10:49;99129.72;;;4.80;67.75
61109;BME280;46995;55.740;37.402;2023-03-23T03:19:00;99158.28;;;4.95;67.85
61109;BME280;46995;55.740;37.402;2023-03-23T03:21:30;99098.25;;;4.43;67.79
61109;BME280;46995;55.740;37.402;2023-03-23T03:24:00;99138.69;;;4.50;68.24
61109;BME280;46995;55.740;37.402;2023-03-23T03:26:30;99130.97;;;4.36;69.14
61109;BME280;46995;55.740;37.402;2023-03-23T03:29:07;99133.47;;;4.38;68.71
61109;BME280;46995;55.740;37.402;2023-03-23T03:31:41;99128.22;;;4.25;69.39
61109;BME280;46995;55.740;37.402;2023-03-23T03:34:14;99061.91;;;3.88;69.42
61109;BME280;46995;55.740;37.402;2023-03-23T03:36:48;99073.09;;;3.90;69.95
61109;BME280;46995;55.740;37.402;2023-03-23T03:39:26;99132.00;;;4.21;70.10
61109;BME280;46995;55.740;37.402;2023-03-23T03:41:52;99153.56;;;4.37;68.82
61109;BME280;46995;55.740;37.402;2023-03-23T03:44:19;99153.25;;;4.29;69.48
61109;BME280;46995;55.740;37.402;2023-03-23T03:46:46;99124.31;;;4.05;70.25
61109;BME280;46995;55.740;37.402;2023-03-23T03:49:12;99148.50;;;4.21;70.48
61109;BME280;46995;55.740;37.402;2023-03-23T03:51:40;99149.44;;;4.20;70.92
61109;BME280;46995;55.740;37.402;2023-03-23T03:54:11;99101.38;;;3.83;70.75
61109;BME280;46995;55.740;37.402;2023-03-23T03:56:37;99119.91;;;3.93;70.99
61109;BME280;46995;55.740;37.402;2023-03-23T03:59:31;99098.28;;;3.91;70.97
61109;BME280;46995;55.740;37.402;2023-03-23T04:02:22;99098.47;;;3.88;70.67
61109;BME280;46995;55.740;37.402;2023-03-23T04:04:54;99085.53;;;3.87;71.28
61109;BME280;46995;55.740;37.402;2023-03-23T04:07:20;99093.78;;;3.93;71.01
61109;BME280;46995;55.740;37.402;2023-03-23T04:09:48;99136.38;;;4.20;71.31
61109;BME280;46995;55.740;37.402;2023-03-23T04:12:17;99111.69;;;4.12;71.39
61109;BME280;46995;55.740;37.402;2023-03-23T04:14:58;99130.44;;;4.18;71.65
61109;BME280;46995;55.740;37.402;2023-03-23T04:17:34;99091.69;;;3.98;71.51
61109;BME280;46995;55.740;37.402;2023-03-23T04:20:01;99126.53;;;4.24;71.51
61109;BME280;46995;55.740;37.402;2023-03-23T04:22:33;99143.59;;;4.30;71.71
61109;BME280;46995;55.740;37.402;2023-03-23T04:25:01;99129.28;;;4.22;71.97
61109;BME280;46995;55.740;37.402;2023-03-23T04:27:32;99113.66;;;4.08;71.78
61109;BME280;46995;55.740;37.402;2023-03-23T04:30:01;99124.25;;;4.19;72.13
61109;BME280;46995;55.740;37.402;2023-03-23T04:32:51;99122.38;;;4.21;72.19
61109;BME280;46995;55.740;37.402;2023-03-23T04:35:25;99135.03;;;4.28;72.26
61109;BME280;46995;55.740;37.402;2023-03-23T04:38:04;99135.56;;;4.33;72.24
61109;BME280;46995;55.740;37.402;2023-03-23T04:40:30;99132.94;;;4.33;72.30
61109;BME280;46995;55.740;37.402;2023-03-23T04:43:07;99120.50;;;4.23;72.18
61109;BME280;46995;55.740;37.402;2023-03-23T04:45:55;99106.59;;;4.23;72.42
61109;BME280;46995;55.740;37.402;2023-03-23T04:48:24;99141.84;;;4.43;72.28
61109;BME280;46995;55.740;37.402;2023-03-23T04:51:02;99092.25;;;4.16;72.41
61109;BME280;46995;55.740;37.402;2023-03-23T04:53:30;99135.59;;;4.58;71.05
61109;BME280;46995;55.740;37.402;2023-03-23T04:55:56;99121.56;;;4.46;72.02
61109;BME280;46995;55.740;37.402;2023-03-23T04:58:22;99122.22;;;4.50;71.85
61109;BME280;46995;55.740;37.402;2023-03-23T05:01:13;99127.22;;;4.65;71.77
61109;BME280;46995;55.740;37.402;2023-03-23T05:03:53;99135.38;;;4.61;72.13
61109;BME280;46995;55.740;37.402;2023-03-23T05:06:19;99100.97;;;4.42;72.19
61109;BME280;46995;55.740;37.402;2023-03-23T05:08:46;99108.38;;;4.48;71.73
61109;BME280;46995;55.740;37.402;2023-03-23T05:11:12;99146.69;;;4.74;71.62
61109;BME280;46995;55.740;37.402;2023-03-23T05:13:41;99149.81;;;4.79;71.72
61109;BME280;46995;55.740;37.402;2023-03-23T05:16:08;99154.94;;;4.81;72.29
61109;BME280;46995;55.740;37.402;2023-03-23T05:18:36;99136.00;;;4.77;71.83
61109;BME280;46995;55.740;37.402;2023-03-23T05:21:06;99125.53;;;4.77;71.96
61109;BME280;46995;55.740;37.402;2023-03-23T05:23:36;99119.25;;;4.80;71.74
61109;BME280;46995;55.740;37.402;2023-03-23T05:26:12;99133.28;;;4.91;71.50
61109;BME280;46995;55.740;37.402;2023-03-23T05:28:39;99122.38;;;4.97;70.95
61109;BME280;46995;55.740;37.402;2023-03-23T05:31:16;99130.09;;;5.11;70.94
61109;BME280;46995;55.740;37.402;2023-03-23T05:33:44;99144.00;;;5.25;70.81
61109;BME280;46995;55.740;37.402;2023-03-23T05:36:11;99137.81;;;5.26;70.89
61109;BME280;46995;55.740;37.402;2023-03-23T05:39:11;99136.13;;;5.37;70.26
61109;BME280;46995;55.740;37.402;2023-03-23T05:41:58;99139.41;;;5.52;70.24
61109;BME280;46995;55.740;37.402;2023-03-23T05:44:30;99125.72;;;5.48;69.92
61109;BME280;46995;55.740;37.402;2023-03-23T05:46:58;99127.06;;;5.54;69.89
61109;BME280;46995;55.740;37.402;2023-03-23T05:49:24;99124.72;;;5.62;70.06
61109;BME280;46995;55.740;37.402;2023-03-23T05:51:52;99101.03;;;5.64;69.91
61109;BME280;46995;55.740;37.402;2023-03-23T05:54:20;99120.28;;;5.75;69.32
61109;BME280;46995;55.740;37.402;2023-03-23T05:56:48;99117.91;;;5.83;69.07
61109;BME280;46995;55.740;37.402;2023-03-23T05:59:35;99126.47;;;5.98;68.96
61109;BME280;46995;55.740;37.402;2023-03-23T06:02:02;99133.91;;;6.15;68.65
61109;BME280;46995;55.740;37.402;2023-03-23T06:04:28;99133.69;;;6.18;68.34
61109;BME280;46995;55.740;37.402;2023-03-23T06:07:12;99118.56;;;6.22;68.08
61109;BME280;46995;55.740;37.402;2023-03-23T06:09:44;99128.13;;;6.34;68.18
61109;BME280;46995;55.740;37.402;2023-03-23T06:12:22;99127.44;;;6.43;67.67
61109;BME280;46995;55.740;37.402;2023-03-23T06:15:08;99135.31;;;6.54;67.57
61109;BME280;46995;55.740;37.402;2023-03-23T06:18:01;99127.22;;;6.57;67.12
61109;BME280;46995;55.740;37.402;2023-03-23T06:20:48;99126.31;;;6.69;67.01
61109;BME280;46995;55.740;37.402;2023-03-23T06:23:33;99123.19;;;6.75;67.08
61109;BME280;46995;55.740;37.402;2023-03-23T06:26:06;99123.91;;;6.77;66.78
61109;BME280;46995;55.740;37.402;2023-03-23T06:28:33;99109.38;;;6.73;66.67
61109;BME280;46995;55.740;37.402;2023-03-23T06:31:04;99096.94;;;6.75;67.03
61109;BME280;46995;55.740;37.402;2023-03-23T06:33:34;99089.78;;;6.77;66.52
61109;BME280;46995;55.740;37.402;2023-03-23T06:36:15;99128.81;;;7.04;66.54
61109;BME280;46995;55.740;37.402;2023-03-23T06:39:01;99114.97;;;7.02;65.94
61109;BME280;46995;55.740;37.402;2023-03-23T06:41:50;99108.16;;;7.11;65.77
61109;BME280;46995;55.740;37.402;2023-03-23T06:44:16;99097.31;;;7.04;65.45
61109;BME280;46995;55.740;37.402;2023-03-23T06:46:42;99089.31;;;7.06;65.60
61109;BME280;46995;55.740;37.402;2023-03-23T06:49:37;99093.34;;;7.21;65.18
61109;BME280;46995;55.740;37.402;2023-03-23T06:52:15;99091.19;;;7.26;65.44
61109;BME280;46995;55.740;37.402;2023-03-23T06:54:41;99076.88;;;7.19;64.81
61109;BME280;46995;55.740;37.402;2023-03-23T06:57:08;99025.84;;;7.01;64.58
61109;BME280;46995;55.740;37.402;2023-03-23T06:59:34;99079.00;;;7.36;64.49
61109;BME280;46995;55.740;37.402;2023-03-23T07:02:01;99106.84;;;7.71;64.19
61109;BME280;46995;55.740;37.402;2023-03-23T07:04:27;99114.97;;;7.79;63.92
61109;BME280;46995;55.740;37.402;2023-03-23T07:07:05;99118.03;;;7.84;63.65
61109;BME280;46995;55.740;37.402;2023-03-23T07:09:38;99092.25;;;7.78;63.48
61109;BME280;46995;55.740;37.402;2023-03-23T07:12:05;99095.34;;;7.83;63.34
61109;BME280;46995;55.740;37.402;2023-03-23T07:14:37;99070.38;;;7.77;63.39
61109;BME280;46995;55.740;37.402;2023-03-23T07:17:03;99061.66;;;7.77;63.06
61109;BME280;46995;55.740;37.402;2023-03-23T07:19:33;99074.38;;;7.92;62.50
61109;BME280;46995;55.740;37.402;2023-03-23T07:22:00;99098.34;;;8.10;62.24
61109;BME280;46995;55.740;37.402;2023-03-23T07:24:26;99040.53;;;7.78;62.19
61109;BME280;46995;55.740;37.402;2023-03-23T07:27:03;99066.25;;;7.95;62.20
61109;BME280;46995;55.740;37.402;2023-03-23T07:29:30;99079.31;;;8.06;62.07
61109;BME280;46995;55.740;37.402;2023-03-23T07:32:06;99029.34;;;7.86;61.83
61109;BME280;46995;55.740;37.402;2023-03-23T07:34:34;99102.31;;;8.25;61.71
61109;BME280;46995;55.740;37.402;2023-03-23T07:37:11;99057.44;;;8.06;61.26
61109;BME280;46995;55.740;37.402;2023-03-23T07:39:40;99082.34;;;8.23;61.15
61109;BME280;46995;55.740;37.402;2023-03-23T07:42:07;99054.59;;;8.09;61.03
61109;BME280;46995;55.740;37.402;2023-03-23T07:44:41;99078.28;;;8.30;61.00
61109;BME280;46995;55.740;37.402;2023-03-23T07:47:11;99049.81;;;8.24;60.79
61109;BME280;46995;55.740;37.402;2023-03-23T07:49:37;99074.03;;;8.38;60.63
61109;BME280;46995;55.740;37.402;2023-03-23T07:52:28;99052.88;;;8.40;60.54
61109;BME280;46995;55.740;37.402;2023-03-23T07:54:55;99030.81;;;8.31;60.49
61109;BME280;46995;55.740;37.402;2023-03-23T07:57:41;99035.28;;;8.40;60.16
61109;BME280;46995;55.740;37.402;2023-03-23T08:00:07;99068.94;;;8.67;60.16
61109;BME280;46995;55.740;37.402;2023-03-23T08:02:52;99052.47;;;8.75;59.50
61109;BME280;46995;55.740;37.402;2023-03-23T08:05:39;99070.25;;;8.82;59.69
61109;BME280;46995;55.740;37.402;2023-03-23T08:08:31;99053.34;;;8.85;58.92
61109;BME280;46995;55.740;37.402;2023-03-23T08:11:20;99067.84;;;9.00;58.87
61109;BME280;46995;55.740;37.402;2023-03-23T08:14:25;99044.78;;;8.92;58.54
61109;BME280;46995;55.740;37.402;2023-03-23T08:17:09;99038.41;;;8.95;58.51
61109;BME280;46995;55.740;37.402;2023-03-23T08:19:44;99061.34;;;9.14;58.24
61109;BME280;46995;55.740;37.402;2023-03-23T08:22:34;99020.69;;;8.97;58.28
61109;BME280;46995;55.740;37.402;2023-03-23T08:25:16;99039.56;;;9.12;58.30
61109;BME280;46995;55.740;37.402;2023-03-23T08:28:00;99036.28;;;9.19;57.45
61109;BME280;46995;55.740;37.402;2023-03-23T08:30:53;99021.44;;;9.18;57.73
61109;BME280;46995;55.740;37.402;2023-03-23T08:33:32;99032.00;;;9.38;57.72
61109;BME280;46995;55.740;37.402;2023-03-23T08:36:10;99007.84;;;9.32;57.32
61109;BME280;46995;55.740;37.402;2023-03-23T08:39:12;99014.97;;;9.42;57.29
61109;BME280;46995;55.740;37.402;2023-03-23T08:41:58;99018.84;;;9.57;57.34
61109;BME280;46995;55.740;37.402;2023-03-23T08:44:56;99002.63;;;9.52;56.83
61109;BME280;46995;55.740;37.402;2023-03-23T08:47:48;98986.94;;;9.50;56.60
61109;BME280;46995;55.740;37.402;2023-03-23T08:50:35;98991.50;;;9.58;56.37
61109;BME280;46995;55.740;37.402;2023-03-23T08:53:15;98990.53;;;9.59;56.47
61109;BME280;46995;55.740;37.402;2023-03-23T08:55:41;99002.06;;;9.77;56.56
61109;BME280;46995;55.740;37.402;2023-03-23T08:58:37;98960.88;;;9.57;56.20
61109;BME280;46995;55.740;37.402;2023-03-23T09:01:23;98955.28;;;9.60;56.27
61109;BME280;46995;55.740;37.402;2023-03-23T09:04:04;98981.78;;;9.77;55.95
61109;BME280;46995;55.740;37.402;2023-03-23T09:06:48;98949.75;;;9.63;56.21
61109;BME280;46995;55.740;37.402;2023-03-23T09:09:14;98975.81;;;9.85;55.49
61109;BME280;46995;55.740;37.402;2023-03-23T09:11:40;98944.72;;;9.69;55.44
61109;BME280;46995;55.740;37.402;2023-03-23T09:14:07;98937.53;;;9.71;55.37
61109;BME280;46995;55.740;37.402;2023-03-23T09:16:34;98957.47;;;9.93;54.98
61109;BME280;46995;55.740;37.402;2023-03-23T09:19:00;98931.66;;;9.87;54.89
61109;BME280;46995;55.740;37.402;2023-03-23T09:21:27;98976.88;;;10.21;54.66
61109;BME280;46995;55.740;37.402;2023-03-23T09:23:53;98940.50;;;10.05;54.51
61109;BME280;46995;55.740;37.402;2023-03-23T09:26:22;98958.78;;;10.26;54.74
61109;BME280;46995;55.740;37.402;2023-03-23T09:28:48;98935.47;;;10.22;53.90
61109;BME280;46995;55.740;37.402;2023-03-23T09:31:14;98965.53;;;10.48;53.77
61109;BME280;46995;55.740;37.402;2023-03-23T09:33:41;98959.13;;;10.50;53.73
61109;BME280;46995;55.740;37.402;2023-03-23T09:36:10;98946.78;;;10.51;53.73
61109;BME280;46995;55.740;37.402;2023-03-23T09:38:38;98946.84;;;10.59;53.13
61109;BME280;46995;55.740;37.402;2023-03-23T09:47:10;98910.91;;;10.76;53.28
61109;BME280;46995;55.740;37.402;2023-03-23T09:49:44;98900.94;;;10.70;52.08
61109;BME280;46995;55.740;37.402;2023-03-23T09:52:15;98915.75;;;10.80;51.96
61109;BME280;46995;55.740;37.402;2023-03-23T09:54:50;98906.16;;;10.79;51.59
61109;BME280;46995;55.740;37.402;2023-03-23T10:05:37;98895.03;;;11.03;51.51
61109;BME280;46995;55.740;37.402;2023-03-23T10:08:22;98891.63;;;11.11;51.48
61109;BME280;46995;55.740;37.402;2023-03-23T10:11:08;98906.28;;;11.23;50.44
61109;BME280;46995;55.740;37.402;2023-03-23T10:16:24;98881.78;;;11.21;51.27
61109;BME280;46995;55.740;37.402;2023-03-23T10:21:40;98882.53;;;11.31;50.55
61109;BME280;46995;55.740;37.402;2023-03-23T10:24:17;98878.63;;;11.35;50.71
61109;BME280;46995;55.740;37.402;2023-03-23T10:29:34;98888.69;;;11.57;49.90
61109;BME280;46995;55.740;37.402;2023-03-23T10:32:13;98889.91;;;11.63;49.58
61109;BME280;46995;55.740;37.402;2023-03-23T10:37:19;98886.19;;;11.73;49.51
61109;BME280;46995;55.740;37.402;2023-03-23T10:39:53;98851.38;;;11.60;49.55
61109;BME280;46995;55.740;37.402;2023-03-23T10:42:34;98873.91;;;11.72;49.81
61109;BME280;46995;55.740;37.402;2023-03-23T10:45:25;98879.16;;;11.82;49.61
61109;BME280;46995;55.740;37.402;2023-03-23T10:50:36;98882.09;;;12.05;48.63
61109;BME280;46995;55.740;37.402;2023-03-23T10:53:15;98881.47;;;12.11;48.06
61109;BME280;46995;55.740;37.402;2023-03-23T10:55:43;98881.88;;;12.24;48.18
61109;BME280;46995;55.740;37.402;2023-03-23T10:58:23;98890.19;;;12.37;47.86
61109;BME280;46995;55.740;37.402;2023-03-23T11:00:50;98884.25;;;12.35;47.55
61109;BME280;46995;55.740;37.402;2023-03-23T11:06:06;98868.38;;;12.43;47.70
61109;BME280;46995;55.740;37.402;2023-03-23T11:08:37;98875.06;;;12.55;46.60
61109;BME280;46995;55.740;37.402;2023-03-23T11:11:11;98888.69;;;12.77;46.59
61109;BME280;46995;55.740;37.402;2023-03-23T11:13:49;98888.72;;;12.93;45.75
61109;BME280;46995;55.740;37.402;2023-03-23T11:16:24;98880.13;;;13.07;45.52
61109;BME280;46995;55.740;37.402;2023-03-23T11:18:51;98868.22;;;13.11;45.28
61109;BME280;46995;55.740;37.402;2023-03-23T11:21:19;98878.34;;;13.15;44.78
61109;BME280;46995;55.740;37.402;2023-03-23T11:23:55;98890.47;;;13.18;45.60
61109;BME280;46995;55.740;37.402;2023-03-23T11:26:27;98885.75;;;13.04;45.43
61109;BME280;46995;55.740;37.402;2023-03-23T11:29:15;98896.03;;;13.07;46.20
61109;BME280;46995;55.740;37.402;2023-03-23T11:36:54;98871.78;;;12.69;45.90
61109;BME280;46995;55.740;37.402;2023-03-23T11:39:32;98873.44;;;12.70;46.06
61109;BME280;46995;55.740;37.402;2023-03-23T11:42:11;98890.69;;;12.83;46.20
61109;BME280;46995;55.740;37.402;2023-03-23T11:44:42;98900.28;;;12.84;46.12
61109;BME280;46995;55.740;37.402;2023-03-23T11:47:36;98891.69;;;12.82;46.15
61109;BME280;46995;55.740;37.402;2023-03-23T11:55:20;98856.53;;;12.63;46.93
61109;BME280;46995;55.740;37.402;2023-03-23T11:57:48;98890.72;;;12.91;46.39
61109;BME280;46995;55.740;37.402;2023-03-23T12:00:16;98886.09;;;13.01;45.93
61109;BME280;46995;55.740;37.402;2023-03-23T12:03:05;98884.81;;;13.21;46.34
61109;BME280;46995;55.740;37.402;2023-03-23T12:06:01;98838.28;;;13.19;45.67
61109;BME280;46995;55.740;37.402;2023-03-23T12:09:14;98878.50;;;13.63;45.19
61109;BME280;46995;55.740;37.402;2023-03-23T12:17:19;98862.28;;;13.66;45.27
61109;BME280;46995;55.740;37.402;2023-03-23T12:31:49;98862.78;;;13.45;45.35
61109;BME280;46995;55.740;37.402;2023-03-23T12:39:50;98860.97;;;13.29;46.12
61109;BME280;46995;55.740;37.402;2023-03-23T12:48:13;98833.72;;;12.95;46.28
61109;BME280;46995;55.740;37.402;2023-03-23T12:57:06;98850.63;;;12.86;46.52
61109;BME280;46995;55.740;37.402;2023-03-23T13:02:59;98830.72;;;12.73;46.82
61109;BME280;46995;55.740;37.402;2023-03-23T13:07:58;98829.59;;;13.08;46.36
61109;BME280;46995;55.740;37.402;2023-03-23T13:10:34;98829.78;;;13.31;46.03
61109;BME280;46995;55.740;37.402;2023-03-23T13:13:01;98831.63;;;13.31;45.95
61109;BME280;46995;55.740;37.402;2023-03-23T13:15:53;98838.41;;;13.25;46.27
61109;BME280;46995;55.740;37.402;2023-03-23T13:18:25;98832.44;;;13.07;46.61
61109;BME280;46995;55.740;37.402;2023-03-23T13:23:50;98801.56;;;12.65;47.46
61109;BME280;46995;55.740;37.402;2023-03-23T13:26:20;98815.66;;;12.74;47.41
61109;BME280;46995;55.740;37.402;2023-03-23T13:28:59;98801.56;;;12.65;47.20
61109;BME280;46995;55.740;37.402;2023-03-23T13:31:33;98808.53;;;12.66;47.62
61109;BME280;46995;55.740;37.402;2023-03-23T13:34:21;98788.13;;;12.51;47.58
61109;BME280;46995;55.740;37.402;2023-03-23T13:39:29;98800.50;;;12.42;47.82
61109;BME280;46995;55.740;37.402;2023-03-23T13:49:54;98813.09;;;12.40;48.08
61109;BME280;46995;55.740;37.402;2023-03-23T13:53:00;98797.84;;;12.34;48.73
61109;BME280;46995;55.740;37.402;2023-03-23T13:55:41;98806.38;;;12.20;48.72
61109;BME280;46995;55.740;37.402;2023-03-23T14:00:46;98803.31;;;11.99;49.30
61109;BME280;46995;55.740;37.402;2023-03-23T14:03:32;98800.16;;;11.87;49.89
61109;BME280;46995;55.740;37.402;2023-03-23T14:06:03;98799.19;;;11.70;49.63
61109;BME280;46995;55.740;37.402;2023-03-23T14:08:39;98784.28;;;11.61;49.96
61109;BME280;46995;55.740;37.402;2023-03-23T14:11:22;98778.31;;;11.59;50.32
61109;BME280;46995;55.740;37.402;2023-03-23T14:14:20;98776.00;;;11.56;50.25
61109;BME280;46995;55.740;37.402;2023-03-23T14:16:51;98769.03;;;11.55;50.44
61109;BME280;46995;55.740;37.402;2023-03-23T14:19:51;98764.59;;;11.56;50.35
61109;BME280;46995;55.740;37.402;2023-03-23T14:22:37;98770.38;;;11.59;50.61
61109;BME280;46995;55.740;37.402;2023-03-23T14:25:27;98766.66;;;11.44;50.89
61109;BME280;46995;55.740;37.402;2023-03-23T14:27:56;98763.91;;;11.28;51.26
61109;BME280;46995;55.740;37.402;2023-03-23T14:30:27;98783.75;;;11.32;51.34
61109;BME280;46995;55.740;37.402;2023-03-23T14:33:05;98773.50;;;11.29;51.63
61109;BME280;46995;55.740;37.402;2023-03-23T14:35:35;98772.34;;;11.31;51.44
61109;BME280;46995;55.740;37.402;2023-03-23T14:38:03;98772.16;;;11.25;51.78
61109;BME280;46995;55.740;37.402;2023-03-23T14:40:30;98773.91;;;11.16;52.24
61109;BME280;46995;55.740;37.402;2023-03-23T14:42:56;98773.59;;;11.19;52.09
61109;BME280;46995;55.740;37.402;2023-03-23T14:45:24;98766.03;;;10.98;52.49
61109;BME280;46995;55.740;37.402;2023-03-23T14:48:01;98752.72;;;10.90;52.69
61109;BME280;46995;55.740;37.402;2023-03-23T14:50:31;98747.44;;;10.90;53.04
61109;BME280;46995;55.740;37.402;2023-03-23T14:53:37;98752.13;;;10.96;53.09
61109;BME280;46995;55.740;37.402;2023-03-23T14:56:15;98751.16;;;10.80;53.38
61109;BME280;46995;55.740;37.402;2023-03-23T14:58:45;98765.44;;;10.87;52.84
61109;BME280;46995;55.740;37.402;2023-03-23T15:01:18;98757.34;;;10.71;53.51
61109;BME280;46995;55.740;37.402;2023-03-23T15:04:12;98760.84;;;10.71;53.71
61109;BME280;46995;55.740;37.402;2023-03-23T15:06:41;98749.16;;;10.56;53.90
61109;BME280;46995;55.740;37.402;2023-03-23T15:09:26;98764.81;;;10.57;54.29
61109;BME280;46995;55.740;37.402;2023-03-23T15:12:02;98768.09;;;10.51;54.64
61109;BME280;46995;55.740;37.402;2023-03-23T15:14:37;98762.56;;;10.45;54.79
61109;BME280;46995;55.740;37.402;2023-03-23T15:17:17;98759.69;;;10.38;54.75
61109;BME280;46995;55.740;37.402;2023-03-23T15:19:43;98759.16;;;10.35;54.79
61109;BME280;46995;55.740;37.402;2023-03-23T15:24:44;98759.56;;;10.40;54.72
61109;BME280;46995;55.740;37.402;2023-03-23T15:27:14;98756.22;;;10.38;55.25
61109;BME280;46995;55.740;37.402;2023-03-23T15:29:55;98736.16;;;10.27;55.04
61109;BME280;46995;55.740;37.402;2023-03-23T15:32:36;98766.88;;;10.46;54.95
61109;BME280;46995;55.740;37.402;2023-03-23T15:35:11;98753.28;;;10.41;54.93
61109;BME280;46995;55.740;37.402;2023-03-23T15:37:44;98748.78;;;10.51;54.76
61109;BME280;46995;55.740;37.402;2023-03-23T15:40:25;98753.34;;;10.49;55.02